sensor_id;sensor_type;location;lat;lon;timestamp;pressure;altitude;pressure_sealevel;temperature;humidity
15646;BME280;7922;43.622;1.476;2023-02-28T00:01:55;100436.56;;;0.83;65.42
15646;BME280;7922;43.622;1.476;2023-02-28T00:04:20;100487.06;;;1.00;65.65
15646;BME280;7922;43.622;1.476;2023-02-28T00:06:45;100349.38;;;0.21;65.35
15646;BME280;7922;43.622;1.476;2023-02-28T00:09:10;100494.03;;;1.00;65.55
15646;BME280;7922;43.622;1.476;2023-02-28T00:11:36;100492.28;;;1.05;65.50
15646;BME280;7922;43.622;1.476;2023-02-28T00:14:01;100547.22;;;1.31;65.99
15646;BME280;7922;43.622;1.476;2023-02-28T00:16:26;100436.47;;;0.64;65.92
15646;BME280;7922;43.622;1.476;2023-02-28T00:18:52;100429.47;;;0.57;65.88
15646;BME280;7922;43.622;1.476;2023-02-28T00:21:18;100371.16;;;0.29;66.12
15646;BME280;7922;43.622;1.476;2023-02-28T00:23:44;100460.81;;;0.68;66.20
15646;BME280;7922;43.622;1.476;2023-02-28T00:26:10;100441.69;;;0.64;66.30
15646;BME280;7922;43.622;1.476;2023-02-28T00:28:35;100430.34;;;0.52;66.82
15646;BME280;7922;43.622;1.476;2023-02-28T00:31:00;100467.78;;;0.67;66.24
15646;BME280;7922;43.622;1.476;2023-02-28T00:33:26;100496.59;;;0.87;67.16
15646;BME280;7922;43.622;1.476;2023-02-28T00:35:52;100533.16;;;0.98;67.08
15646;BME280;7922;43.622;1.476;2023-02-28T00:38:17;100529.72;;;1.07;66.70
15646;BME280;7922;43.622;1.476;2023-02-28T00:40:42;100563.69;;;1.17;66.97
15646;BME280;7922;43.622;1.476;2023-02-28T00:43:08;100328.31;;;-0.20;66.68
15646;BME280;7922;43.622;1.476;2023-02-28T00:45:33;100378.78;;;0.02;67.38
15646;BME280;7922;43.622;1.476;2023-02-28T00:47:58;100310.84;;;-0.40;67.61
15646;BME280;7922;43.622;1.476;2023-02-28T00:50:23;100317.59;;;-0.60;67.87
15646;BME280;7922;43.622;1.476;2023-02-28T00:52:49;100561.69;;;0.80;68.08
15646;BME280;7922;43.622;1.476;2023-02-28T00:55:14;100397.75;;;-0.18;67.69
15646;BME280;7922;43.622;1.476;2023-02-28T00:57:39;100501.50;;;0.41;67.67
15646;BME280;7922;43.622;1.476;2023-02-28T01:00:05;100514.56;;;0.44;68.32
15646;BME280;7922;43.622;1.476;2023-02-28T01:02:31;100529.44;;;0.59;68.33
15646;BME280;7922;43.622;1.476;2023-02-28T01:04:57;100350.69;;;-0.45;68.09
15646;BME280;7922;43.622;1.476;2023-02-28T01:07:23;100500.59;;;0.36;68.46
15646;BME280;7922;43.622;1.476;2023-02-28T01:09:48;100392.53;;;-0.21;67.92
15646;BME280;7922;43.622;1.476;2023-02-28T01:12:13;100464.88;;;0.18;67.82
15646;BME280;7922;43.622;1.476;2023-02-28T01:14:39;100546.88;;;0.69;68.03
15646;BME280;7922;43.622;1.476;2023-02-28T01:17:04;100549.47;;;0.66;67.86
15646;BME280;7922;43.622;1.476;2023-02-28T01:19:30;100563.34;;;0.62;68.79
15646;BME280;7922;43.622;1.476;2023-02-28T01:21:55;100461.34;;;0.13;68.31
15646;BME280;7922;43.622;1.476;2023-02-28T01:24:21;100599.19;;;0.92;68.23
15646;BME280;7922;43.622;1.476;2023-02-28T01:26:46;100593.97;;;0.91;68.31
15646;BME280;7922;43.622;1.476;2023-02-28T01:29:11;100418.50;;;-0.26;68.69
15646;BME280;7922;43.622;1.476;2023-02-28T01:31:36;100548.50;;;0.54;68.78
15646;BME280;7922;43.622;1.476;2023-02-28T01:34:02;100550.16;;;0.47;68.32
15646;BME280;7922;43.622;1.476;2023-02-28T01:36:28;100417.66;;;-0.25;69.02
15646;BME280;7922;43.622;1.476;2023-02-28T01:38:54;100479.59;;;0.15;69.29
15646;BME280;7922;43.622;1.476;2023-02-28T01:41:22;100625.22;;;0.86;69.45
15646;BME280;7922;43.622;1.476;2023-02-28T01:46:14;100440.25;;;-0.19;69.49
15646;BME280;7922;43.622;1.476;2023-02-28T01:49:06;100619.94;;;0.79;69.19
15646;BME280;7922;43.622;1.476;2023-02-28T01:51:38;100369.53;;;-0.73;69.44
15646;BME280;7922;43.622;1.476;2023-02-28T01:54:09;100557.00;;;0.31;69.56
15646;BME280;7922;43.622;1.476;2023-02-28T01:56:36;100605.91;;;0.64;70.02
15646;BME280;7922;43.622;1.476;2023-02-28T01:59:02;100538.69;;;0.20;69.66
15646;BME280;7922;43.622;1.476;2023-02-28T02:01:28;100543.09;;;0.26;69.75
15646;BME280;7922;43.622;1.476;2023-02-28T02:03:58;100519.50;;;0.14;70.04
15646;BME280;7922;43.622;1.476;2023-02-28T02:06:29;100637.38;;;0.84;69.47
15646;BME280;7922;43.622;1.476;2023-02-28T02:08:55;100493.34;;;-0.02;69.83
15646;BME280;7922;43.622;1.476;2023-02-28T02:11:21;100490.75;;;-0.02;69.79
15646;BME280;7922;43.622;1.476;2023-02-28T02:16:39;100646.03;;;0.83;69.26
15646;BME280;7922;43.622;1.476;2023-02-28T02:27:04;100640.00;;;0.87;69.61
15646;BME280;7922;43.622;1.476;2023-02-28T02:29:40;100584.16;;;0.55;70.28
15646;BME280;7922;43.622;1.476;2023-02-28T02:35:07;100430.63;;;-0.28;69.80
15646;BME280;7922;43.622;1.476;2023-02-28T02:37:59;100437.63;;;-0.23;69.85
15646;BME280;7922;43.622;1.476;2023-02-28T02:40:41;100592.88;;;0.63;70.40
15646;BME280;7922;43.622;1.476;2023-02-28T02:43:19;100449.00;;;-0.14;69.67
15646;BME280;7922;43.622;1.476;2023-02-28T02:45:50;100641.78;;;0.93;70.33
15646;BME280;7922;43.622;1.476;2023-02-28T02:48:19;100562.38;;;0.50;70.18
15646;BME280;7922;43.622;1.476;2023-02-28T02:50:52;100572.88;;;0.60;70.13
15646;BME280;7922;43.622;1.476;2023-02-28T02:53:24;100514.44;;;0.31;70.28
15646;BME280;7922;43.622;1.476;2023-02-28T02:55:53;100576.44;;;0.70;69.91
15646;BME280;7922;43.622;1.476;2023-02-28T02:58:24;100584.25;;;0.71;69.84
15646;BME280;7922;43.622;1.476;2023-02-28T03:00:53;100534.47;;;0.39;70.13
15646;BME280;7922;43.622;1.476;2023-02-28T03:03:20;100529.41;;;0.55;70.02
15646;BME280;7922;43.622;1.476;2023-02-28T03:05:50;100565.91;;;0.61;70.25
15646;BME280;7922;43.622;1.476;2023-02-28T03:08:16;100519.72;;;0.37;69.91
15646;BME280;7922;43.622;1.476;2023-02-28T03:10:44;100576.44;;;0.76;69.91
15646;BME280;7922;43.622;1.476;2023-02-28T03:15:58;100525.00;;;0.51;70.35
15646;BME280;7922;43.622;1.476;2023-02-28T03:18:31;100609.66;;;1.02;70.46
15646;BME280;7922;43.622;1.476;2023-02-28T03:21:16;100531.94;;;0.45;69.74
15646;BME280;7922;43.622;1.476;2023-02-28T03:26:33;100550.31;;;0.62;70.25
15646;BME280;7922;43.622;1.476;2023-02-28T03:29:12;100617.50;;;0.99;69.98
15646;BME280;7922;43.622;1.476;2023-02-28T03:32:02;100574.66;;;0.69;70.50
15646;BME280;7922;43.622;1.476;2023-02-28T03:34:33;100430.78;;;-0.08;70.60
15646;BME280;7922;43.622;1.476;2023-02-28T03:37:05;100376.78;;;-0.36;70.58
15646;BME280;7922;43.622;1.476;2023-02-28T03:39:43;100573.81;;;0.70;70.94
15646;BME280;7922;43.622;1.476;2023-02-28T03:42:14;100510.06;;;0.25;70.70
15646;BME280;7922;43.622;1.476;2023-02-28T03:47:20;100354.03;;;-0.60;70.79
15646;BME280;7922;43.622;1.476;2023-02-28T03:49:52;100504.06;;;0.34;70.64
15646;BME280;7922;43.622;1.476;2023-02-28T03:52:22;100531.09;;;0.50;70.65
15646;BME280;7922;43.622;1.476;2023-02-28T03:54:52;100533.72;;;0.51;70.88
15646;BME280;7922;43.622;1.476;2023-02-28T04:00:12;100535.41;;;0.46;70.83
15646;BME280;7922;43.622;1.476;2023-02-28T04:02:39;100612.22;;;0.92;70.93
15646;BME280;7922;43.622;1.476;2023-02-28T04:05:05;100583.38;;;0.71;71.33
15646;BME280;7922;43.622;1.476;2023-02-28T04:07:31;100560.63;;;0.48;71.31
15646;BME280;7922;43.622;1.476;2023-02-28T04:09:57;100608.66;;;0.81;71.74
15646;BME280;7922;43.622;1.476;2023-02-28T04:12:23;100572.84;;;0.56;71.96
15646;BME280;7922;43.622;1.476;2023-02-28T04:14:49;100552.72;;;0.39;71.74
15646;BME280;7922;43.622;1.476;2023-02-28T04:17:15;100569.28;;;0.44;72.25
15646;BME280;7922;43.622;1.476;2023-02-28T04:19:40;100551.00;;;0.37;72.01
15646;BME280;7922;43.622;1.476;2023-02-28T04:22:07;100516.09;;;0.19;72.41
15646;BME280;7922;43.622;1.476;2023-02-28T04:24:33;100494.22;;;-0.01;72.27
15646;BME280;7922;43.622;1.476;2023-02-28T04:26:58;100608.63;;;0.77;72.04
15646;BME280;7922;43.622;1.476;2023-02-28T04:29:31;100599.78;;;0.58;72.47
15646;BME280;7922;43.622;1.476;2023-02-28T04:31:57;100517.81;;;0.17;72.42
15646;BME280;7922;43.622;1.476;2023-02-28T04:34:23;100612.09;;;0.76;72.55
15646;BME280;7922;43.622;1.476;2023-02-28T04:36:49;100551.81;;;0.36;72.81
15646;BME280;7922;43.622;1.476;2023-02-28T04:39:15;100530.91;;;0.22;72.47
15646;BME280;7922;43.622;1.476;2023-02-28T04:41:40;100504.69;;;0.07;73.13
15646;BME280;7922;43.622;1.476;2023-02-28T04:44:06;100599.81;;;0.61;72.62
15646;BME280;7922;43.622;1.476;2023-02-28T04:46:31;100507.25;;;0.04;72.53
15646;BME280;7922;43.622;1.476;2023-02-28T04:48:56;100544.84;;;0.30;72.93
15646;BME280;7922;43.622;1.476;2023-02-28T04:51:22;100405.22;;;-0.56;72.97
15646;BME280;7922;43.622;1.476;2023-02-28T04:53:48;100485.56;;;0.02;73.24
15646;BME280;7922;43.622;1.476;2023-02-28T04:56:15;100531.78;;;0.27;72.89
15646;BME280;7922;43.622;1.476;2023-02-28T04:58:40;100384.41;;;-0.58;73.30
15646;BME280;7922;43.622;1.476;2023-02-28T05:01:19;100629.47;;;0.74;73.56
15646;BME280;7922;43.622;1.476;2023-02-28T05:03:44;100456.69;;;-0.23;73.62
15646;BME280;7922;43.622;1.476;2023-02-28T05:06:12;100553.59;;;0.38;73.31
15646;BME280;7922;43.622;1.476;2023-02-28T05:08:38;100392.16;;;-0.64;73.13
15646;BME280;7922;43.622;1.476;2023-02-28T05:11:05;100561.34;;;0.32;73.60
15646;BME280;7922;43.622;1.476;2023-02-28T05:13:31;100641.56;;;0.64;73.70
15646;BME280;7922;43.622;1.476;2023-02-28T05:15:56;100568.22;;;0.22;74.21
15646;BME280;7922;43.622;1.476;2023-02-28T05:18:21;100527.16;;;-0.05;74.97
15646;BME280;7922;43.622;1.476;2023-02-28T05:20:47;100421.59;;;-0.68;74.69
15646;BME280;7922;43.622;1.476;2023-02-28T05:23:14;100620.53;;;0.44;74.78
15646;BME280;7922;43.622;1.476;2023-02-28T05:25:40;100623.97;;;0.43;75.60
15646;BME280;7922;43.622;1.476;2023-02-28T05:28:06;100438.09;;;-0.63;75.56
15646;BME280;7922;43.622;1.476;2023-02-28T05:30:32;100431.91;;;-0.76;75.46
15646;BME280;7922;43.622;1.476;2023-02-28T05:32:58;100631.69;;;0.31;75.80
15646;BME280;7922;43.622;1.476;2023-02-28T05:35:23;100592.34;;;0.03;75.81
15646;BME280;7922;43.622;1.476;2023-02-28T05:37:49;100584.41;;;-0.09;76.37
15646;BME280;7922;43.622;1.476;2023-02-28T05:40:15;100608.78;;;-0.01;76.55
15646;BME280;7922;43.622;1.476;2023-02-28T05:42:41;100567.78;;;-0.25;77.25
15646;BME280;7922;43.622;1.476;2023-02-28T05:45:07;100531.00;;;-0.53;77.55
15646;BME280;7922;43.622;1.476;2023-02-28T05:47:33;100485.59;;;-0.81;77.44
15646;BME280;7922;43.622;1.476;2023-02-28T05:49:58;100532.59;;;-0.67;78.02
15646;BME280;7922;43.622;1.476;2023-02-28T05:52:23;100608.59;;;-0.19;77.90
15646;BME280;7922;43.622;1.476;2023-02-28T05:54:49;100472.31;;;-1.05;77.79
15646;BME280;7922;43.622;1.476;2023-02-28T05:57:14;100638.19;;;-0.11;78.25
15646;BME280;7922;43.622;1.476;2023-02-28T05:59:39;100628.56;;;-0.18;78.39
15646;BME280;7922;43.622;1.476;2023-02-28T06:02:06;100565.63;;;-0.61;78.60
15646;BME280;7922;43.622;1.476;2023-02-28T06:04:35;100579.50;;;-0.59;79.32
15646;BME280;7922;43.622;1.476;2023-02-28T06:07:01;100673.84;;;-0.07;79.07
15646;BME280;7922;43.622;1.476;2023-02-28T06:09:26;100510.59;;;-0.92;79.10
15646;BME280;7922;43.622;1.476;2023-02-28T06:11:51;100628.44;;;-0.29;79.12
15646;BME280;7922;43.622;1.476;2023-02-28T06:14:18;100467.84;;;-1.14;78.85
15646;BME280;7922;43.622;1.476;2023-02-28T06:16:44;100453.75;;;-1.33;79.13
15646;BME280;7922;43.622;1.476;2023-02-28T06:19:10;100486.00;;;-1.18;79.68
15646;BME280;7922;43.622;1.476;2023-02-28T06:21:36;100591.59;;;-0.63;79.95
15646;BME280;7922;43.622;1.476;2023-02-28T06:24:03;100442.34;;;-1.44;79.71
15646;BME280;7922;43.622;1.476;2023-02-28T06:26:29;100490.34;;;-1.19;79.79
15646;BME280;7922;43.622;1.476;2023-02-28T06:28:54;100653.75;;;-0.17;80.16
15646;BME280;7922;43.622;1.476;2023-02-28T06:31:20;100581.13;;;-0.67;78.96
15646;BME280;7922;43.622;1.476;2023-02-28T06:33:46;100361.22;;;-1.90;79.65
15646;BME280;7922;43.622;1.476;2023-02-28T06:36:13;100464.97;;;-1.37;79.36
15646;BME280;7922;43.622;1.476;2023-02-28T06:38:39;100465.13;;;-1.26;79.09
15646;BME280;7922;43.622;1.476;2023-02-28T06:41:05;100572.50;;;-0.65;78.41
15646;BME280;7922;43.622;1.476;2023-02-28T06:43:33;100677.38;;;-0.04;78.65
15646;BME280;7922;43.622;1.476;2023-02-28T06:46:01;100536.72;;;-0.83;78.30
15646;BME280;7922;43.622;1.476;2023-02-28T06:48:27;100657.38;;;-0.05;79.04
15646;BME280;7922;43.622;1.476;2023-02-28T06:51:00;100427.69;;;-1.40;79.59
15646;BME280;7922;43.622;1.476;2023-02-28T06:53:25;100614.41;;;-0.42;78.90
15646;BME280;7922;43.622;1.476;2023-02-28T06:55:51;100612.75;;;-0.35;78.63
15646;BME280;7922;43.622;1.476;2023-02-28T06:58:16;100652.91;;;-0.15;78.71
15646;BME280;7922;43.622;1.476;2023-02-28T07:00:42;100437.25;;;-1.38;78.25
15646;BME280;7922;43.622;1.476;2023-02-28T07:03:07;100640.56;;;-0.33;78.42
15646;BME280;7922;43.622;1.476;2023-02-28T07:05:35;100397.00;;;-1.67;78.27
15646;BME280;7922;43.622;1.476;2023-02-28T07:08:00;100418.88;;;-1.52;78.50
15646;BME280;7922;43.622;1.476;2023-02-28T07:10:26;100515.88;;;-0.84;78.85
15646;BME280;7922;43.622;1.476;2023-02-28T07:12:51;100685.34;;;0.12;78.45
15646;BME280;7922;43.622;1.476;2023-02-28T07:15:16;100438.44;;;-1.11;77.42
15646;BME280;7922;43.622;1.476;2023-02-28T07:17:42;100476.78;;;-0.93;76.85
15646;BME280;7922;43.622;1.476;2023-02-28T07:20:07;100493.47;;;-0.76;77.01
15646;BME280;7922;43.622;1.476;2023-02-28T07:22:33;100463.91;;;-0.83;75.67
15646;BME280;7922;43.622;1.476;2023-02-28T07:24:58;100631.59;;;0.20;75.42
15646;BME280;7922;43.622;1.476;2023-02-28T07:27:23;100673.66;;;0.58;75.22
15646;BME280;7922;43.622;1.476;2023-02-28T07:29:52;100671.03;;;0.57;75.21
15646;BME280;7922;43.622;1.476;2023-02-28T07:32:18;100577.53;;;-0.01;75.31
15646;BME280;7922;43.622;1.476;2023-02-28T07:34:44;100639.69;;;0.47;74.49
15646;BME280;7922;43.622;1.476;2023-02-28T07:37:09;100538.47;;;-0.03;73.98
15646;BME280;7922;43.622;1.476;2023-02-28T07:39:35;100626.72;;;0.55;74.25
15646;BME280;7922;43.622;1.476;2023-02-28T07:42:02;100508.00;;;-0.14;74.12
15646;BME280;7922;43.622;1.476;2023-02-28T07:44:28;100484.47;;;-0.22;73.95
15646;BME280;7922;43.622;1.476;2023-02-28T07:46:54;100633.75;;;0.68;73.04
15646;BME280;7922;43.622;1.476;2023-02-28T07:49:19;100616.41;;;0.70;72.63
15646;BME280;7922;43.622;1.476;2023-02-28T07:51:44;100559.69;;;0.42;72.85
15646;BME280;7922;43.622;1.476;2023-02-28T07:54:09;100712.44;;;1.27;72.75
15646;BME280;7922;43.622;1.476;2023-02-28T07:56:35;100648.75;;;0.95;71.62
15646;BME280;7922;43.622;1.476;2023-02-28T07:59:00;100682.91;;;1.34;71.49
15646;BME280;7922;43.622;1.476;2023-02-28T08:01:25;100642.84;;;1.21;70.89
15646;BME280;7922;43.622;1.476;2023-02-28T08:03:51;100707.41;;;1.56;70.72
15646;BME280;7922;43.622;1.476;2023-02-28T08:06:19;100637.78;;;1.46;69.64
15646;BME280;7922;43.622;1.476;2023-02-28T08:08:44;100596.72;;;1.17;69.21
15646;BME280;7922;43.622;1.476;2023-02-28T08:11:10;100659.56;;;1.58;69.53
15646;BME280;7922;43.622;1.476;2023-02-28T08:13:35;100649.97;;;1.50;68.91
15646;BME280;7922;43.622;1.476;2023-02-28T08:16:01;100706.59;;;1.63;69.86
15646;BME280;7922;43.622;1.476;2023-02-28T08:18:27;100569.53;;;0.80;69.13
15646;BME280;7922;43.622;1.476;2023-02-28T08:20:52;100732.88;;;1.93;69.03
15646;BME280;7922;43.622;1.476;2023-02-28T08:23:17;100657.09;;;1.83;68.07
15646;BME280;7922;43.622;1.476;2023-02-28T08:25:43;100672.88;;;2.15;67.58
15646;BME280;7922;43.622;1.476;2023-02-28T08:28:08;100661.50;;;1.96;67.04
15646;BME280;7922;43.622;1.476;2023-02-28T08:30:33;100440.91;;;0.81;66.57
15646;BME280;7922;43.622;1.476;2023-02-28T08:32:58;100573.44;;;1.61;66.37
15646;BME280;7922;43.622;1.476;2023-02-28T08:35:24;100682.53;;;2.57;65.17
15646;BME280;7922;43.622;1.476;2023-02-28T08:37:49;100534.25;;;1.55;65.09
15646;BME280;7922;43.622;1.476;2023-02-28T08:40:15;100518.56;;;1.51;65.69
15646;BME280;7922;43.622;1.476;2023-02-28T08:42:40;100655.50;;;2.54;64.51
15646;BME280;7922;43.622;1.476;2023-02-28T08:45:06;100528.25;;;1.98;63.93
15646;BME280;7922;43.622;1.476;2023-02-28T08:47:31;100570.06;;;2.10;63.46
15646;BME280;7922;43.622;1.476;2023-02-28T08:49:56;100674.69;;;2.59;63.55
15646;BME280;7922;43.622;1.476;2023-02-28T08:52:22;100691.25;;;2.64;63.49
15646;BME280;7922;43.622;1.476;2023-02-28T08:54:47;100584.81;;;1.79;63.48
15646;BME280;7922;43.622;1.476;2023-02-28T08:57:12;100676.41;;;2.34;63.59
15646;BME280;7922;43.622;1.476;2023-02-28T08:59:38;100676.41;;;2.34;63.01
15646;BME280;7922;43.622;1.476;2023-02-28T09:02:03;100528.22;;;1.75;62.99
15646;BME280;7922;43.622;1.476;2023-02-28T09:04:28;100672.81;;;2.03;63.77
15646;BME280;7922;43.622;1.476;2023-02-28T09:06:53;100705.97;;;2.17;63.82
15646;BME280;7922;43.622;1.476;2023-02-28T09:09:19;100696.44;;;2.29;63.77
15646;BME280;7922;43.622;1.476;2023-02-28T09:11:44;100642.25;;;1.80;64.48
15646;BME280;7922;43.622;1.476;2023-02-28T09:14:09;100501.00;;;1.04;64.47
15646;BME280;7922;43.622;1.476;2023-02-28T09:16:34;100559.41;;;1.35;64.40
15646;BME280;7922;43.622;1.476;2023-02-28T09:19:00;100718.22;;;2.38;64.32
15646;BME280;7922;43.622;1.476;2023-02-28T09:21:26;100527.22;;;1.36;63.41
15646;BME280;7922;43.622;1.476;2023-02-28T09:23:51;100697.31;;;2.35;63.08
15646;BME280;7922;43.622;1.476;2023-02-28T09:26:20;100706.09;;;2.71;62.83
15646;BME280;7922;43.622;1.476;2023-02-28T09:28:46;100566.53;;;1.91;62.32
15646;BME280;7922;43.622;1.476;2023-02-28T09:31:13;100679.06;;;2.66;62.01
15646;BME280;7922;43.622;1.476;2023-02-28T09:33:39;100702.59;;;2.75;61.76
15646;BME280;7922;43.622;1.476;2023-02-28T09:36:04;100705.25;;;2.87;61.76
15646;BME280;7922;43.622;1.476;2023-02-28T09:38:30;100720.97;;;3.06;60.40
15646;BME280;7922;43.622;1.476;2023-02-28T09:41:00;100763.69;;;3.16;60.83
15646;BME280;7922;43.622;1.476;2023-02-28T09:43:30;100754.06;;;3.37;60.64
15646;BME280;7922;43.622;1.476;2023-02-28T09:48:48;100712.22;;;2.99;60.33
15646;BME280;7922;43.622;1.476;2023-02-28T09:53:39;100739.25;;;3.50;59.64
15646;BME280;7922;43.622;1.476;2023-02-28T09:56:24;100757.56;;;3.55;59.22
15646;BME280;7922;43.622;1.476;2023-02-28T09:59:10;100758.34;;;3.97;58.37
15646;BME280;7922;43.622;1.476;2023-02-28T10:01:46;100726.91;;;3.95;58.88
15646;BME280;7922;43.622;1.476;2023-02-28T10:04:47;100768.78;;;4.14;57.66
15646;BME280;7922;43.622;1.476;2023-02-28T10:10:25;100578.69;;;3.22;56.87
15646;BME280;7922;43.622;1.476;2023-02-28T10:12:54;100714.56;;;4.20;57.13
15646;BME280;7922;43.622;1.476;2023-02-28T10:15:23;100589.09;;;3.53;55.94
15646;BME280;7922;43.622;1.476;2023-02-28T10:17:54;100627.50;;;3.45;56.38
15646;BME280;7922;43.622;1.476;2023-02-28T10:20:23;100556.06;;;3.10;56.84
15646;BME280;7922;43.622;1.476;2023-02-28T10:25:28;100533.44;;;2.85;56.52
15646;BME280;7922;43.622;1.476;2023-02-28T10:28:10;100760.94;;;4.09;56.87
15646;BME280;7922;43.622;1.476;2023-02-28T10:30:40;100730.38;;;3.96;57.07
15646;BME280;7922;43.622;1.476;2023-02-28T10:33:24;100542.16;;;2.78;57.24
15646;BME280;7922;43.622;1.476;2023-02-28T10:35:51;100702.53;;;3.67;57.15
15646;BME280;7922;43.622;1.476;2023-02-28T10:38:37;100766.94;;;4.34;56.01
15646;BME280;7922;43.622;1.476;2023-02-28T10:41:35;100762.56;;;4.44;55.86
15646;BME280;7922;43.622;1.476;2023-02-28T10:44:20;100727.59;;;4.40;55.14
15646;BME280;7922;43.622;1.476;2023-02-28T10:46:46;100683.16;;;4.06;54.68
15646;BME280;7922;43.622;1.476;2023-02-28T10:49:17;100553.25;;;3.58;55.63
15646;BME280;7922;43.622;1.476;2023-02-28T10:51:42;100766.84;;;4.55;54.83
15646;BME280;7922;43.622;1.476;2023-02-28T10:54:16;100751.16;;;4.48;55.22
15646;BME280;7922;43.622;1.476;2023-02-28T10:56:43;100559.34;;;3.65;54.01
15646;BME280;7922;43.622;1.476;2023-02-28T11:03:58;100594.41;;;3.21;55.29
15646;BME280;7922;43.622;1.476;2023-02-28T11:06:32;100716.47;;;3.78;55.37
15646;BME280;7922;43.622;1.476;2023-02-28T11:09:17;100766.19;;;4.06;55.50
15646;BME280;7922;43.622;1.476;2023-02-28T11:11:45;100632.72;;;3.51;56.78
15646;BME280;7922;43.622;1.476;2023-02-28T11:16:44;100707.63;;;4.05;56.52
15646;BME280;7922;43.622;1.476;2023-02-28T11:19:18;100720.84;;;3.76;55.86
15646;BME280;7922;43.622;1.476;2023-02-28T11:22:00;100685.13;;;3.52;56.78
15646;BME280;7922;43.622;1.476;2023-02-28T11:24:29;100585.72;;;3.05;55.71
15646;BME280;7922;43.622;1.476;2023-02-28T11:26:56;100649.34;;;3.44;55.67
15646;BME280;7922;43.622;1.476;2023-02-28T11:34:36;100593.53;;;3.22;55.94
15646;BME280;7922;43.622;1.476;2023-02-28T11:37:02;100621.41;;;3.49;55.19
15646;BME280;7922;43.622;1.476;2023-02-28T11:39:27;100695.50;;;3.80;54.46
15646;BME280;7922;43.622;1.476;2023-02-28T11:44:47;100725.59;;;4.77;54.40
15646;BME280;7922;43.622;1.476;2023-02-28T11:52:52;100601.09;;;3.95;53.30
15646;BME280;7922;43.622;1.476;2023-02-28T11:55:27;100603.81;;;3.77;53.96
15646;BME280;7922;43.622;1.476;2023-02-28T11:58:04;100732.72;;;4.60;52.46
15646;BME280;7922;43.622;1.476;2023-02-28T12:03:26;100725.06;;;5.43;50.95
15646;BME280;7922;43.622;1.476;2023-02-28T12:11:07;100713.63;;;6.29;46.83
15646;BME280;7922;43.622;1.476;2023-02-28T12:13:58;100699.84;;;6.10;48.05
15646;BME280;7922;43.622;1.476;2023-02-28T12:19:26;100707.75;;;5.22;47.20
15646;BME280;7922;43.622;1.476;2023-02-28T12:22:19;100686.88;;;5.07;47.28
15646;BME280;7922;43.622;1.476;2023-02-28T12:27:29;100687.38;;;5.49;46.82
15646;BME280;7922;43.622;1.476;2023-02-28T12:32:50;100617.38;;;5.40;46.48
15646;BME280;7922;43.622;1.476;2023-02-28T12:35:22;100532.88;;;5.03;47.02
15646;BME280;7922;43.622;1.476;2023-02-28T12:38:02;100627.75;;;5.54;46.20
15646;BME280;7922;43.622;1.476;2023-02-28T12:40:41;100662.56;;;5.73;46.93
15646;BME280;7922;43.622;1.476;2023-02-28T12:43:08;100527.13;;;4.69;47.16
15646;BME280;7922;43.622;1.476;2023-02-28T12:45:41;100670.44;;;5.73;46.91
15646;BME280;7922;43.622;1.476;2023-02-28T12:48:14;100639.38;;;5.31;47.54
15646;BME280;7922;43.622;1.476;2023-02-28T12:50:40;100582.16;;;4.75;48.35
15646;BME280;7922;43.622;1.476;2023-02-28T12:53:06;100677.22;;;5.12;49.24
15646;BME280;7922;43.622;1.476;2023-02-28T13:09:56;100631.50;;;5.30;48.17
15646;BME280;7922;43.622;1.476;2023-02-28T13:12:23;100610.00;;;4.90;47.70
15646;BME280;7922;43.622;1.476;2023-02-28T13:14:49;100438.88;;;4.57;46.76
15646;BME280;7922;43.622;1.476;2023-02-28T13:17:33;100633.16;;;5.37;46.66
15646;BME280;7922;43.622;1.476;2023-02-28T13:19:59;100572.56;;;4.71;47.35
15646;BME280;7922;43.622;1.476;2023-02-28T13:22:52;100455.91;;;4.18;46.85
15646;BME280;7922;43.622;1.476;2023-02-28T13:31:15;100254.09;;;3.24;45.74
15646;BME280;7922;43.622;1.476;2023-02-28T13:38:41;100458.66;;;3.99;45.08
15646;BME280;7922;43.622;1.476;2023-02-28T13:49:26;100504.38;;;4.68;43.82
15646;BME280;7922;43.622;1.476;2023-02-28T13:54:56;100635.91;;;6.07;41.87
15646;BME280;7922;43.622;1.476;2023-02-28T14:05:15;100442.69;;;5.07;41.92
15646;BME280;7922;43.622;1.476;2023-02-28T14:07:55;100604.63;;;5.80;41.80
15646;BME280;7922;43.622;1.476;2023-02-28T14:10:29;100571.00;;;5.39;42.70
15646;BME280;7922;43.622;1.476;2023-02-28T14:12:59;100466.97;;;4.50;43.27
15646;BME280;7922;43.622;1.476;2023-02-28T14:18:00;100544.59;;;4.68;44.67
15646;BME280;7922;43.622;1.476;2023-02-28T14:20:27;100550.00;;;4.51;45.53
15646;BME280;7922;43.622;1.476;2023-02-28T14:23:16;100488.16;;;4.24;46.09
15646;BME280;7922;43.622;1.476;2023-02-28T14:31:34;100600.22;;;5.09;46.12
15646;BME280;7922;43.622;1.476;2023-02-28T14:34:25;100470.72;;;4.22;46.02
15646;BME280;7922;43.622;1.476;2023-02-28T14:36:52;100443.72;;;4.09;45.18
15646;BME280;7922;43.622;1.476;2023-02-28T14:39:25;100642.97;;;5.21;45.44
15646;BME280;7922;43.622;1.476;2023-02-28T14:41:52;100523.72;;;4.59;43.98
15646;BME280;7922;43.622;1.476;2023-02-28T14:44:25;100484.19;;;4.74;43.86
15646;BME280;7922;43.622;1.476;2023-02-28T14:46:56;100486.31;;;4.35;43.11
15646;BME280;7922;43.622;1.476;2023-02-28T14:49:34;100611.72;;;4.94;44.51
15646;BME280;7922;43.622;1.476;2023-02-28T14:52:21;100636.31;;;5.70;43.44
15646;BME280;7922;43.622;1.476;2023-02-28T14:54:53;100559.88;;;5.14;42.23
15646;BME280;7922;43.622;1.476;2023-02-28T14:57:23;100647.38;;;5.18;43.58
15646;BME280;7922;43.622;1.476;2023-02-28T15:00:02;100530.47;;;4.81;43.11
15646;BME280;7922;43.622;1.476;2023-02-28T15:02:31;100632.03;;;5.61;42.51
15646;BME280;7922;43.622;1.476;2023-02-28T15:05:02;100589.72;;;5.07;42.16
15646;BME280;7922;43.622;1.476;2023-02-28T15:07:36;100590.78;;;4.88;43.22
15646;BME280;7922;43.622;1.476;2023-02-28T15:10:25;100595.69;;;5.21;43.76
15646;BME280;7922;43.622;1.476;2023-02-28T15:15:21;100591.44;;;5.13;42.47
15646;BME280;7922;43.622;1.476;2023-02-28T15:17:52;100421.09;;;3.99;42.54
15646;BME280;7922;43.622;1.476;2023-02-28T15:20:20;100642.25;;;5.05;42.12
15646;BME280;7922;43.622;1.476;2023-02-28T15:22:47;100624.00;;;4.92;42.75
15646;BME280;7922;43.622;1.476;2023-02-28T15:25:15;100628.34;;;4.96;43.46
15646;BME280;7922;43.622;1.476;2023-02-28T15:27:47;100495.13;;;4.30;42.93